createdAt,value
2024-04-26T00:00:45.461Z,93086.38
2024-04-26T00:03:12.963Z,93087.09
2024-04-26T00:05:40.413Z,93084.03
2024-04-26T00:08:08.142Z,93085.22
2024-04-26T00:10:38.275Z,93087.53
2024-04-26T00:13:06.003Z,93084.34
2024-04-26T00:15:33.433Z,93090.66
2024-04-26T00:18:00.914Z,93083.72
2024-04-26T00:20:28.418Z,93085.47
2024-04-26T00:22:55.848Z,93088.16
2024-04-26T00:25:23.514Z,93076.91
2024-04-26T00:27:53.517Z,93084.66
2024-04-26T00:30:20.842Z,93075.06
2024-04-26T00:32:48.435Z,93078.28
2024-04-26T00:35:16.019Z,93072.38
2024-04-26T00:37:43.602Z,93083.22
2024-04-26T00:40:11.502Z,93079.31
2024-04-26T00:42:38.988Z,93073.47
2024-04-26T00:45:09.353Z,93072.59
2024-04-26T00:47:37.394Z,93067.56
2024-04-26T00:50:05.756Z,93082.28
2024-04-26T00:52:33.106Z,93074.56
2024-04-26T00:55:00.491Z,93077.47
2024-04-26T00:57:28.135Z,93073.53
2024-04-26T00:59:56.035Z,93077.91
2024-04-26T01:02:26.632Z,93074.78
2024-04-26T01:04:54.274Z,93075.28
2024-04-26T01:07:21.886Z,93080.09
2024-04-26T01:09:49.523Z,93069.78
2024-04-26T01:12:17.055Z,93069.69
2024-04-26T01:14:44.377Z,93066.38
2024-04-26T01:17:11.822Z,93067.53
2024-04-26T01:19:42.437Z,93073.34
2024-04-26T01:22:16.082Z,93083.25
2024-04-26T01:24:46.183Z,93081.53
2024-04-26T01:27:13.603Z,93095.16
2024-04-26T01:29:41.152Z,93092.31
2024-04-26T01:32:08.985Z,93097.06
2024-04-26T01:34:36.419Z,93087.81
2024-04-26T01:37:03.778Z,93090.34
2024-04-26T01:39:31.046Z,93099.28
2024-04-26T01:42:01.113Z,93095.94
2024-04-26T01:44:28.759Z,93104.06
2024-04-26T01:46:56.242Z,93102.94
2024-04-26T01:49:24.145Z,93110.97
2024-04-26T01:51:51.459Z,93110.38
2024-04-26T01:54:18.754Z,93115.97
2024-04-26T01:56:46.044Z,93118.69
2024-04-26T01:59:16.168Z,93123.28
2024-04-26T02:01:43.425Z,93130.94
2024-04-26T02:04:11.093Z,93124.28
2024-04-26T02:06:38.535Z,93131.16
2024-04-26T02:09:05.894Z,93126.38
2024-04-26T02:11:36.630Z,93124.63
2024-04-26T02:14:04.231Z,93124.78
2024-04-26T02:16:34.256Z,93126.53
2024-04-26T02:19:01.759Z,93127.78
2024-04-26T02:21:29.065Z,93130.50
2024-04-26T02:23:56.418Z,93139.38
2024-04-26T02:26:23.894Z,93135.38
2024-04-26T02:28:51.285Z,93140.22
2024-04-26T02:31:18.730Z,93148.84
2024-04-26T02:33:49.055Z,93152.38
2024-04-26T02:36:16.571Z,93158.75
2024-04-26T02:38:44.090Z,93166.03
2024-04-26T02:41:11.503Z,93165.00
2024-04-26T02:43:41.650Z,93172.19
2024-04-26T02:46:10.312Z,93170.75
2024-04-26T02:48:37.355Z,93163.09
2024-04-26T02:51:10.154Z,93165.22
2024-04-26T02:53:37.574Z,93173.88
2024-04-26T02:56:05.620Z,93166.84
2024-04-26T02:58:32.886Z,93174.41
2024-04-26T03:01:00.457Z,93171.09
2024-04-26T03:03:28.639Z,93169.28
2024-04-26T03:05:56.676Z,93177.97
2024-04-26T03:08:26.702Z,93177.66
2024-04-26T03:10:54.124Z,93182.47
2024-04-26T03:13:21.411Z,93189.53
2024-04-26T03:15:48.805Z,93187.50
2024-04-26T03:18:16.348Z,93189.88
2024-04-26T03:20:43.839Z,93195.28
2024-04-26T03:23:11.234Z,93205.28
2024-04-26T03:25:41.288Z,93205.00
2024-04-26T03:28:08.614Z,93211.31
2024-04-26T03:30:35.870Z,93212.19
2024-04-26T03:33:03.652Z,93213.94
2024-04-26T03:35:31.201Z,93219.50
2024-04-26T03:37:58.466Z,93224.75
2024-04-26T03:40:25.825Z,93219.47
2024-04-26T03:42:55.853Z,93225.59
2024-04-26T03:45:23.304Z,93232.25
2024-04-26T03:47:50.846Z,93235.09
2024-04-26T03:50:18.466Z,93236.41
2024-04-26T03:52:46.104Z,93251.53
2024-04-26T03:55:13.712Z,93246.94
2024-04-26T03:57:41.372Z,93255.00
2024-04-26T04:00:12.939Z,93248.28
2024-04-26T04:02:40.475Z,93252.84
2024-04-26T04:05:08.051Z,93265.34
2024-04-26T04:07:35.576Z,93259.44
2024-04-26T04:10:05.298Z,93262.63
2024-04-26T04:12:32.808Z,93259.22
2024-04-26T04:15:01.059Z,93266.06
2024-04-26T04:17:31.298Z,93269.38
2024-04-26T04:20:01.493Z,93270.13
2024-04-26T04:22:28.794Z,93264.56
2024-04-26T04:24:56.218Z,93272.03
2024-04-26T04:27:23.571Z,93282.56
2024-04-26T04:29:51.407Z,93281.72
2024-04-26T04:32:18.920Z,93286.13
2024-04-26T04:34:49.272Z,93279.75
2024-04-26T04:37:16.813Z,93277.09
2024-04-26T04:39:44.094Z,93283.31
2024-04-26T04:42:11.554Z,93282.47
2024-04-26T04:44:39.518Z,93290.88
2024-04-26T04:47:07.953Z,93294.44
2024-04-26T04:49:35.677Z,93298.81
2024-04-26T04:52:05.777Z,93294.72
2024-04-26T04:54:35.488Z,93302.88
2024-04-26T04:57:03.244Z,93302.44
2024-04-26T04:59:31.664Z,93307.47
2024-04-26T05:01:59.071Z,93306.88
2024-04-26T05:04:26.720Z,93316.72
2024-04-26T05:06:54.205Z,93313.28
2024-04-26T05:09:24.364Z,93306.59
2024-04-26T05:11:51.909Z,93316.88
2024-04-26T05:14:19.401Z,93314.00
2024-04-26T05:16:46.755Z,93318.69
2024-04-26T05:19:14.346Z,93319.84
2024-04-26T05:21:41.758Z,93320.84
2024-04-26T05:24:09.268Z,93318.13
2024-04-26T05:26:39.458Z,93316.56
2024-04-26T05:29:06.945Z,93320.09
2024-04-26T05:31:34.580Z,93313.41
2024-04-26T05:34:02.032Z,93314.25
2024-04-26T05:36:29.499Z,93316.06
2024-04-26T05:38:57.004Z,93314.50
2024-04-26T05:41:24.519Z,93316.91
2024-04-26T05:43:54.594Z,93322.06
2024-04-26T05:46:22.022Z,93326.56
2024-04-26T05:48:49.627Z,93328.50
2024-04-26T05:51:17.949Z,93334.44
2024-04-26T05:53:45.527Z,93335.94
2024-04-26T05:56:12.922Z,93342.06
2024-04-26T05:58:40.353Z,93343.81
2024-04-26T06:01:10.458Z,93338.56
2024-04-26T06:03:41.378Z,93343.22
2024-04-26T06:06:09.645Z,93345.31
2024-04-26T06:08:37.791Z,93345.47
2024-04-26T06:11:05.732Z,93350.28
2024-04-26T06:13:33.979Z,93344.84
2024-04-26T06:16:03.833Z,93345.00
2024-04-26T06:18:34.098Z,93349.81
2024-04-26T06:21:02.004Z,93343.22
2024-04-26T06:23:29.557Z,93342.88
2024-04-26T06:25:57.096Z,93345.28
2024-04-26T06:28:24.428Z,93342.25
2024-04-26T06:30:51.753Z,93349.41
2024-04-26T06:33:19.331Z,93351.31
2024-04-26T06:35:49.619Z,93349.31
2024-04-26T06:38:17.059Z,93350.69
2024-04-26T06:40:44.677Z,93356.47
2024-04-26T06:43:13.939Z,93357.88
2024-04-26T06:45:41.495Z,93367.50
2024-04-26T06:48:09.288Z,93368.53
2024-04-26T06:50:36.995Z,93368.09
2024-04-26T06:53:07.237Z,93368.34
2024-04-26T06:55:34.803Z,93367.28
2024-04-26T06:58:02.414Z,93364.47
2024-04-26T07:00:29.908Z,93363.88
2024-04-26T07:02:58.204Z,93367.94
2024-04-26T07:05:25.929Z,93366.19
2024-04-26T07:07:53.596Z,93362.31
2024-04-26T07:10:23.732Z,93366.69
2024-04-26T07:12:51.131Z,93369.25
2024-04-26T07:15:18.639Z,93367.84
2024-04-26T07:17:46.754Z,93365.53
2024-04-26T07:20:14.764Z,93368.09
2024-04-26T07:22:49.866Z,93367.28
2024-04-26T07:25:27.626Z,93367.16
2024-04-26T07:27:55.081Z,93365.97
2024-04-26T07:30:22.562Z,93366.47
2024-04-26T07:32:50.256Z,93365.25
2024-04-26T07:35:17.579Z,93368.00
2024-04-26T07:37:45.002Z,93372.09
2024-04-26T07:40:12.721Z,93374.44
2024-04-26T07:42:42.946Z,93368.81
2024-04-26T07:45:10.414Z,93362.91
2024-04-26T07:47:37.821Z,93362.63
2024-04-26T07:50:06.003Z,93367.13
2024-04-26T07:52:33.478Z,93369.59
2024-04-26T07:55:03.335Z,93374.31
2024-04-26T07:57:32.479Z,93373.97
2024-04-26T08:00:02.604Z,93374.03
2024-04-26T08:02:31.786Z,93374.06
2024-04-26T08:05:02.975Z,93372.91
2024-04-26T08:07:30.810Z,93379.91
2024-04-26T08:09:58.334Z,93375.75
2024-04-26T08:12:25.706Z,93374.75
2024-04-26T08:14:53.332Z,93379.34
2024-04-26T08:17:23.700Z,93372.38
2024-04-26T08:19:51.256Z,93374.38
2024-04-26T08:22:18.762Z,93378.13
2024-04-26T08:24:54.943Z,93376.09
2024-04-26T08:27:25.125Z,93377.47
2024-04-26T08:29:53.902Z,93381.25
2024-04-26T08:32:27.048Z,93374.44
2024-04-26T08:34:55.186Z,93377.44
2024-04-26T08:37:22.985Z,93379.66
2024-04-26T08:39:57.502Z,93382.09
2024-04-26T08:42:26.001Z,93376.72
2024-04-26T08:44:53.639Z,93385.69
2024-04-26T08:47:24.647Z,93388.19
2024-04-26T08:49:53.292Z,93388.81
2024-04-26T08:52:22.246Z,93386.25
2024-04-26T08:54:49.714Z,93387.63
2024-04-26T08:57:22.005Z,93386.00
2024-04-26T08:59:51.672Z,93381.97
2024-04-26T09:02:19.325Z,93385.72
2024-04-26T09:04:50.680Z,93381.34
2024-04-26T09:07:18.443Z,93381.56
2024-04-26T09:09:45.735Z,93380.38
2024-04-26T09:12:13.266Z,93377.75
2024-04-26T09:14:41.002Z,93374.78
2024-04-26T09:17:09.351Z,93381.34
2024-04-26T09:19:37.094Z,93380.38
2024-04-26T09:22:07.523Z,93386.31
2024-04-26T09:24:34.922Z,93374.19
2024-04-26T09:27:02.376Z,93376.63
2024-04-26T09:29:29.927Z,93377.91
2024-04-26T09:32:06.375Z,93373.72
2024-04-26T09:34:42.486Z,93374.50
2024-04-26T09:37:12.971Z,93373.13
2024-04-26T09:39:41.180Z,93382.31
2024-04-26T09:42:10.102Z,93372.97
2024-04-26T09:44:39.601Z,93374.25
2024-04-26T09:47:10.956Z,93377.31
2024-04-26T09:49:39.238Z,93368.94
2024-04-26T09:52:07.123Z,93370.84
2024-04-26T09:54:37.362Z,93367.66
2024-04-26T09:57:05.986Z,93376.31
2024-04-26T09:59:33.491Z,93371.47
2024-04-26T10:02:01.408Z,93372.56
2024-04-26T10:04:29.816Z,93376.97
2024-04-26T10:06:57.369Z,93370.50
2024-04-26T10:09:27.354Z,93377.59
2024-04-26T10:11:57.630Z,93378.84
2024-04-26T10:14:29.298Z,93367.28
2024-04-26T10:17:07.400Z,93367.44
2024-04-26T10:19:35.027Z,93370.84
2024-04-26T10:22:03.960Z,93373.22
2024-04-26T10:24:36.601Z,93376.50
2024-04-26T10:27:06.833Z,93374.19
2024-04-26T10:29:35.229Z,93376.72
2024-04-26T10:32:06.954Z,93375.50
2024-04-26T10:34:35.324Z,93375.88
2024-04-26T10:37:04.063Z,93366.84
2024-04-26T10:39:34.313Z,93363.72
2024-04-26T10:42:01.983Z,93377.41
2024-04-26T10:44:32.620Z,93372.97
2024-04-26T10:47:01.132Z,93379.91
2024-04-26T10:49:31.261Z,93372.59
2024-04-26T10:52:02.020Z,93373.38
2024-04-26T10:54:30.498Z,93371.75
2024-04-26T10:56:58.034Z,93362.56
2024-04-26T10:59:26.178Z,93369.28
2024-04-26T11:01:59.474Z,93371.44
2024-04-26T11:04:34.780Z,93366.06
2024-04-26T11:07:13.787Z,93373.56
2024-04-26T11:09:45.887Z,93370.97
2024-04-26T11:12:14.030Z,93371.59
2024-04-26T11:14:42.431Z,93368.22
2024-04-26T11:17:13.010Z,93366.41
2024-04-26T11:19:43.081Z,93360.00
2024-04-26T11:22:10.714Z,93361.28
2024-04-26T11:24:38.928Z,93361.34
2024-04-26T11:27:18.404Z,93361.63
2024-04-26T11:29:46.333Z,93356.94
2024-04-26T11:32:17.560Z,93358.94
2024-04-26T11:34:45.095Z,93353.59
2024-04-26T11:37:12.767Z,93367.88
2024-04-26T11:39:40.322Z,93360.53
2024-04-26T11:42:07.854Z,93365.31
2024-04-26T11:44:35.277Z,93357.38
2024-04-26T11:47:02.635Z,93365.00
2024-04-26T11:49:35.322Z,93358.97
2024-04-26T11:52:02.860Z,93348.09
2024-04-26T11:54:30.207Z,93352.06
2024-04-26T11:56:58.553Z,93352.03
2024-04-26T11:59:27.039Z,93357.28
2024-04-26T12:01:54.428Z,93352.84
2024-04-26T12:04:21.867Z,93361.38
2024-04-26T12:06:53.183Z,93357.06
2024-04-26T12:09:20.695Z,93350.44
2024-04-26T12:11:48.150Z,93355.78
2024-04-26T12:14:15.652Z,93353.63
2024-04-26T12:16:46.571Z,93352.91
2024-04-26T12:19:14.249Z,93349.63
2024-04-26T12:21:41.462Z,93344.91
2024-04-26T12:24:11.647Z,93345.03
2024-04-26T12:26:39.259Z,93344.03
2024-04-26T12:29:09.670Z,93352.50
2024-04-26T12:31:37.055Z,93348.28
2024-04-26T12:34:04.643Z,93347.16
2024-04-26T12:36:32.218Z,93352.88
2024-04-26T12:39:01.434Z,93355.81
2024-04-26T12:41:31.795Z,93353.94
2024-04-26T12:43:59.266Z,93353.44
2024-04-26T12:46:26.690Z,93351.63
2024-04-26T12:48:54.212Z,93349.69
2024-04-26T12:51:21.691Z,93350.81
2024-04-26T12:53:49.273Z,93352.78
2024-04-26T12:56:16.648Z,93349.22
2024-04-26T12:58:46.847Z,93357.06
2024-04-26T13:01:16.330Z,93349.00
2024-04-26T13:03:46.503Z,93350.91
2024-04-26T13:06:15.539Z,93352.81
2024-04-26T13:08:43.188Z,93340.34
2024-04-26T13:11:10.568Z,93339.63
2024-04-26T13:13:37.901Z,93335.19
2024-04-26T13:16:15.402Z,93341.34
2024-04-26T13:18:42.925Z,93342.63
2024-04-26T13:21:10.349Z,93344.69
2024-04-26T13:23:37.692Z,93345.47
2024-04-26T13:26:06.050Z,93334.53
2024-04-26T13:28:33.424Z,93340.41
2024-04-26T13:31:00.856Z,93335.63
2024-04-26T13:33:30.982Z,93345.47
2024-04-26T13:35:58.437Z,93338.97
2024-04-26T13:38:25.969Z,93339.28
2024-04-26T13:40:53.091Z,93343.19
2024-04-26T13:43:20.097Z,93346.16
2024-04-26T13:45:47.196Z,93348.56
2024-04-26T13:48:16.728Z,93346.91
2024-04-26T13:50:47.050Z,93343.75
2024-04-26T13:53:15.351Z,93343.09
2024-04-26T13:55:44.416Z,93345.81
2024-04-26T13:58:11.700Z,93348.44
2024-04-26T14:00:39.087Z,93353.28
2024-04-26T14:03:06.916Z,93350.34
2024-04-26T14:05:34.911Z,93343.09
2024-04-26T14:08:05.697Z,93344.47
2024-04-26T14:10:33.125Z,93351.34
2024-04-26T14:13:00.582Z,93355.00
2024-04-26T14:15:28.012Z,93351.84
2024-04-26T14:17:55.534Z,93356.47
2024-04-26T14:20:22.994Z,93362.06
2024-04-26T14:22:50.740Z,93355.13
2024-04-26T14:25:20.857Z,93357.34
2024-04-26T14:27:48.163Z,93358.06
2024-04-26T14:30:15.960Z,93358.19
2024-04-26T14:32:43.389Z,93367.94
2024-04-26T14:35:13.934Z,93366.44
2024-04-26T14:37:41.338Z,93365.81
2024-04-26T14:40:09.886Z,93360.19
2024-04-26T14:42:39.935Z,93361.53
2024-04-26T14:45:07.895Z,93361.19
2024-04-26T14:47:35.283Z,93365.75
2024-04-26T14:50:02.734Z,93361.63
2024-04-26T14:52:30.283Z,93358.22
2024-04-26T14:54:57.647Z,93360.25
2024-04-26T14:57:25.067Z,93361.81
2024-04-26T14:59:56.564Z,93361.00
2024-04-26T15:02:24.106Z,93364.81
2024-04-26T15:04:51.629Z,93361.00
2024-04-26T15:07:19.155Z,93359.03
2024-04-26T15:09:47.620Z,93358.28
2024-04-26T15:12:14.906Z,93358.84
2024-04-26T15:14:42.256Z,93361.22
2024-04-26T15:17:12.362Z,93363.38
2024-04-26T15:19:39.895Z,93368.47
2024-04-26T15:22:07.266Z,93370.84
2024-04-26T15:24:34.553Z,93373.97
2024-04-26T15:27:01.981Z,93372.69
2024-04-26T15:29:31.610Z,93376.97
2024-04-26T15:31:59.020Z,93377.75
2024-04-26T15:34:30.449Z,93381.81
2024-04-26T15:36:58.741Z,93382.06
2024-04-26T15:39:26.107Z,93385.06
2024-04-26T15:41:53.458Z,93379.97
2024-04-26T15:44:21.236Z,93374.53
2024-04-26T15:46:48.544Z,93378.03
2024-04-26T15:49:16.088Z,93373.13
2024-04-26T15:51:46.795Z,93376.25
2024-04-26T15:54:14.463Z,93360.25
2024-04-26T15:56:41.779Z,93369.06
2024-04-26T15:59:09.163Z,93361.72
2024-04-26T16:01:36.706Z,93360.44
2024-04-26T16:04:04.374Z,93365.88
2024-04-26T16:06:32.994Z,93363.22
2024-04-26T16:09:03.627Z,93364.22
2024-04-26T16:11:31.101Z,93377.31
2024-04-26T16:13:58.626Z,93374.06
2024-04-26T16:16:26.064Z,93369.38
2024-04-26T16:18:53.470Z,93368.34
2024-04-26T16:21:21.078Z,93363.53
2024-04-26T16:23:48.477Z,93366.94
2024-04-26T16:26:19.782Z,93370.78
2024-04-26T16:28:47.753Z,93376.13
2024-04-26T16:31:35.866Z,93383.16
2024-04-26T16:34:03.329Z,93378.31
2024-04-26T16:36:31.016Z,93389.97
2024-04-26T16:39:02.690Z,93390.47
2024-04-26T16:41:32.867Z,93394.88
2024-04-26T16:44:01.788Z,93394.09
2024-04-26T16:46:30.373Z,93406.78
2024-04-26T16:49:01.261Z,93411.53
2024-04-26T16:51:30.458Z,93405.31
2024-04-26T16:54:00.251Z,93408.88
2024-04-26T16:56:28.313Z,93402.44
2024-04-26T16:58:58.238Z,93408.47
2024-04-26T17:01:25.949Z,93409.41
2024-04-26T17:03:54.439Z,93413.38
2024-04-26T17:06:22.083Z,93418.63
2024-04-26T17:08:49.629Z,93426.00
2024-04-26T17:11:19.990Z,93432.22
2024-04-26T17:13:47.947Z,93425.53
2024-04-26T17:16:17.989Z,93431.22
2024-04-26T17:18:45.492Z,93435.66
2024-04-26T17:21:12.847Z,93439.75
2024-04-26T17:23:40.438Z,93436.56
2024-04-26T17:26:09.823Z,93437.69
2024-04-26T17:28:37.352Z,93442.94
2024-04-26T17:31:05.146Z,93444.16
2024-04-26T17:33:35.228Z,93446.94
2024-04-26T17:36:02.902Z,93456.34
2024-04-26T17:38:41.302Z,93455.88
2024-04-26T17:41:12.512Z,93466.03
2024-04-26T17:43:40.596Z,93460.97
2024-04-26T17:46:07.909Z,93466.81
2024-04-26T17:48:40.753Z,93475.03
2024-04-26T17:51:08.823Z,93473.00
2024-04-26T17:53:36.632Z,93476.72
2024-04-26T17:56:04.589Z,93476.19
2024-04-26T17:58:32.006Z,93478.97
2024-04-26T18:00:59.468Z,93480.63
2024-04-26T18:03:26.764Z,93487.19
2024-04-26T18:05:56.728Z,93479.53
2024-04-26T18:08:26.372Z,93485.34
2024-04-26T18:10:53.699Z,93501.28
2024-04-26T18:13:21.955Z,93502.81
2024-04-26T18:15:49.420Z,93499.31
2024-04-26T18:18:16.845Z,93498.63
2024-04-26T18:20:44.422Z,93502.88
2024-04-26T18:23:14.371Z,93505.19
2024-04-26T18:25:41.880Z,93507.41
2024-04-26T18:28:09.192Z,93506.13
2024-04-26T18:30:36.718Z,93511.78
2024-04-26T18:33:06.626Z,93512.00
2024-04-26T18:35:35.303Z,93517.94
2024-04-26T18:38:03.407Z,93518.59
2024-04-26T18:40:34.651Z,93520.88
2024-04-26T18:43:02.025Z,93519.91
2024-04-26T18:45:29.382Z,93523.94
2024-04-26T18:47:56.824Z,93530.16
2024-04-26T18:50:24.370Z,93532.28
2024-04-26T18:52:51.981Z,93537.16
2024-04-26T18:55:19.314Z,93538.16
2024-04-26T18:57:50.179Z,93542.69
2024-04-26T19:00:17.769Z,93540.25
2024-04-26T19:02:45.805Z,93546.06
2024-04-26T19:05:13.593Z,93546.88
2024-04-26T19:07:41.154Z,93554.22
2024-04-26T19:10:09.166Z,93557.91
2024-04-26T19:12:36.517Z,93561.94
2024-04-26T19:15:06.896Z,93555.69
2024-04-26T19:17:34.401Z,93554.56
2024-04-26T19:20:02.252Z,93560.84
2024-04-26T19:22:29.691Z,93560.19
2024-04-26T19:24:57.079Z,93564.06
2024-04-26T19:27:27.275Z,93563.00
2024-04-26T19:29:55.043Z,93558.63
2024-04-26T19:32:25.050Z,93555.72
2024-04-26T19:34:52.599Z,93552.38
2024-04-26T19:37:20.152Z,93558.78
2024-04-26T19:39:47.478Z,93550.72
2024-04-26T19:42:15.224Z,93553.25
2024-04-26T19:44:42.586Z,93550.34
2024-04-26T19:47:10.516Z,93549.88
2024-04-26T19:49:42.377Z,93545.50
2024-04-26T19:52:29.069Z,93547.59
2024-04-26T19:55:14.918Z,93548.63
2024-04-26T19:57:42.355Z,93551.34
2024-04-26T20:00:10.396Z,93549.88
2024-04-26T20:02:37.940Z,93561.44
2024-04-26T20:05:08.262Z,93552.78
2024-04-26T20:07:35.752Z,93560.19
2024-04-26T20:10:03.289Z,93559.88
2024-04-26T20:12:32.153Z,93553.16
2024-04-26T20:14:59.661Z,93557.00
2024-04-26T20:17:27.219Z,93553.59
2024-04-26T20:19:55.046Z,93561.59
2024-04-26T20:22:25.166Z,93562.03
2024-04-26T20:24:52.537Z,93563.50
2024-04-26T20:27:20.052Z,93563.13
2024-04-26T20:29:47.525Z,93569.06
2024-04-26T20:32:14.982Z,93565.06
2024-04-26T20:34:42.381Z,93557.03
2024-04-26T20:37:12.554Z,93546.16
2024-04-26T20:39:43.896Z,93557.56
2024-04-26T20:42:11.253Z,93564.31
2024-04-26T20:44:39.241Z,93572.66
2024-04-26T20:47:06.580Z,93565.13
2024-04-26T20:49:34.249Z,93576.81
2024-04-26T20:52:01.650Z,93574.88
2024-04-26T20:54:28.921Z,93577.28
2024-04-26T20:56:59.167Z,93578.97
2024-04-26T20:59:26.581Z,93578.47
2024-04-26T21:01:53.972Z,93590.28
2024-04-26T21:04:21.453Z,93591.88
2024-04-26T21:06:48.959Z,93597.06
2024-04-26T21:09:16.238Z,93590.47
2024-04-26T21:11:43.773Z,93603.06
2024-04-26T21:14:13.839Z,93610.59
2024-04-26T21:16:41.239Z,93610.81
2024-04-26T21:19:08.967Z,93610.13
2024-04-26T21:21:36.321Z,93620.38
2024-04-26T21:24:04.365Z,93610.13
2024-04-26T21:26:32.129Z,93617.28
2024-04-26T21:29:01.614Z,93616.22
2024-04-26T21:31:32.268Z,93623.94
2024-04-26T21:34:00.125Z,93624.25
2024-04-26T21:36:29.550Z,93626.00
2024-04-26T21:38:57.340Z,93623.75
2024-04-26T21:41:27.911Z,93618.91
2024-04-26T21:43:55.378Z,93614.72
2024-04-26T21:46:22.843Z,93620.47
2024-04-26T21:48:52.999Z,93624.78
2024-04-26T21:51:21.446Z,93619.59
2024-04-26T21:53:48.810Z,93617.03
2024-04-26T21:56:16.119Z,93626.09
2024-04-26T21:58:43.597Z,93619.66
2024-04-26T22:01:13.263Z,93616.28
2024-04-26T22:03:40.774Z,93625.06
2024-04-26T22:06:10.873Z,93622.78
2024-04-26T22:08:38.234Z,93625.91
2024-04-26T22:11:06.749Z,93625.91
2024-04-26T22:13:33.932Z,93625.91
2024-04-26T22:16:01.386Z,93615.47
2024-04-26T22:18:29.456Z,93617.41
2024-04-26T22:20:56.927Z,93622.16
2024-04-26T22:23:26.974Z,93615.72
2024-04-26T22:25:54.409Z,93623.41
2024-04-26T22:28:21.684Z,93622.13
2024-04-26T22:30:49.196Z,93625.53
2024-04-26T22:33:16.822Z,93624.44
2024-04-26T22:35:45.551Z,93622.81
2024-04-26T22:38:13.303Z,93629.34
2024-04-26T22:40:43.263Z,93625.59
2024-04-26T22:43:10.889Z,93630.41
2024-04-26T22:45:38.259Z,93626.53
2024-04-26T22:48:06.605Z,93631.13
2024-04-26T22:50:34.218Z,93629.94
2024-04-26T22:53:05.187Z,93629.69
2024-04-26T22:55:32.560Z,93628.34
2024-04-26T22:58:02.511Z,93636.00
2024-04-26T23:00:29.995Z,93631.97
2024-04-26T23:02:57.509Z,93638.84
2024-04-26T23:05:24.895Z,93638.47
2024-04-26T23:07:58.167Z,93639.25
2024-04-26T23:10:25.593Z,93633.50
2024-04-26T23:12:52.976Z,93634.00
2024-04-26T23:15:23.088Z,93633.34
2024-04-26T23:17:50.600Z,93632.38
2024-04-26T23:20:17.915Z,93637.91
2024-04-26T23:22:45.334Z,93632.16
2024-04-26T23:25:12.746Z,93635.13
2024-04-26T23:27:40.538Z,93640.47
2024-04-26T23:30:08.626Z,93635.38
2024-04-26T23:32:39.110Z,93633.63
2024-04-26T23:35:07.048Z,93623.56
2024-04-26T23:37:34.486Z,93628.28
2024-04-26T23:40:02.634Z,93629.09
2024-04-26T23:42:30.677Z,93625.34
2024-04-26T23:44:58.100Z,93621.97
2024-04-26T23:47:25.658Z,93616.59
2024-04-26T23:49:55.837Z,93617.81
2024-04-26T23:52:23.311Z,93620.25
2024-04-26T23:54:50.668Z,93613.53
2024-04-26T23:57:18.073Z,93615.13
2024-04-26T23:59:45.514Z,93621.00
